Paris, Tennessee
Current Conditions -  °F | °C
As of 9:55 AM on Friday 31 Oct 2014 (Local Time) from KPHT Reporting Station
Overcast Overcast  
Wind Chill: 50°   Ceiling: 2900
Heat Index: 50°   Visibility: 10mi
Dew Point: 45°   Wind: 14mph
Humidity: 82%   Direction: 360°N
Pressure: 30.08"   Gusts: NA
Location:  36.3°N, 88.32°W
Report Text: KPHT 311455Z AUTO 36012KT 10SM FEW017 OVC029 10/07 A3008 RMK
Loading
Personal Weather Stations






























Interactive Weather Map
Tropical Storm Tracking
New forecast layout! Learn more

10-Day Weather Forecast

Advertisements
Track Severe Weather on mobile